METAR Data
IDs: Format: Raw Decoded Include TAF

Data at: 0046 UTC 25 Apr 2019

METAR for:KSHL (Sheldon Muni, IA, US)
Text:KSHL 250035Z AUTO 23004KT 10SM CLR 23/06 A2969 RMK AO2
Temperature: 23.0°C ( 73°F)
Dewpoint: 6.0°C ( 43°F) [RH = 33%]
Pressure (altimeter):29.69 inches Hg (1005.5 mb)
Winds:from the SW (230 degrees) at 5 MPH (4 knots; 2.1 m/s)
Visibility:10 or more sm (16+ km)
Ceiling:at least 12,000 feet AGL
Clouds:sky clear below 12,000 feet AGL
QC Flag:automated observation with no human augmentation